16.3 C
London
Sunday, September 25, 2022

INCIDENT: Algerie B738 Rejected Takeoff Due To Snow

- Advertisement - Booking.com
- Advertisement -spot_imgspot_imgspot_imgspot_img

UPDATE: An Air Algerie Boeing 737-800, registration 7T-VKR, flying AH-1157 from Lyon (France) to Annaba (Algeria), was cleared for takeoff and accelerating for takeoff from Lyon’s runway 35L when the tower told the aircraft to stop immediately after detecting a snow plough entering the runway.

The crew rejected a low-speed takeoff, and the aircraft slowed and stopped on the runway before taxiing to the hold short line and departing without issue about 7 minutes later.

According to the French BEA, the airfield was operational at night and low visibility protocols were in effect. Without consulting the tower, a ground controller cleared a snow plough onto the runway.

When both controllers spotted the developing conflict, the tower instructed AH-1157 to come to stop. The crew complied, and the plane came to a stop approximately 1200 meters/4000 feet short of the snow plough.

The incident was categorized as serious and is being investigated by the BEA.

The BEA released its Final report in French only on September 7th, 2021; an English version is expected in due time.

As soon as the English version is released, the AVH will summarize it.


Metars:
LFLL 142300Z 23004KT 1800 SN BR BKN002 OVC006 00/00 Q0996 R35R/591591 R35L/591591 TEMPO 0800 SN=
LFLL 142230Z 26003KT 1800 SN BR SCT002 BKN003 OVC008 00/00 Q0996 R35R/591591 R35L/591591 TEMPO 0800 SN=
COR LFLL 142200Z 23003KT 1800 SN BR SCT002 BKN003 OVC008 00/00 Q0997 R35R/591591 R35L/591591 TEMPO 0800 SN=
LFLL 142130Z 00000KT 3000 SN BR BKN002 OVC016 00/00 Q0997 R88/590193 TEMPO 0800 SN=
LFLL 142100Z 29005KT 2000 SN BR BKN002 OVC016 00/00 Q0997 R88/590193 TEMPO 0800 SN=
LFLL 142030Z 26005KT 2000 SN BR BKN002 BKN007 00/00 Q0997 R88/590193 TEMPO 0800 SN=

Source: avhearld


- Advertisement -
Latest news
- Advertisement - Get a .com now from $4.99*/yr with GoDaddy!
- Advertisement -
- Advertisement -
Related news
- Advertisement -spot_img

LEAVE A REPLY

Please enter your comment!
Please enter your name here